sensor_id;sensor_type;location;lat;lon;timestamp;P1;durP1;ratioP1;P2;durP2;ratioP2
11642;SDS011;5877;50.930;6.918;2023-03-29T00:00:39;5.13;;;2.80;;
11642;SDS011;5877;50.930;6.918;2023-03-29T00:05:31;4.07;;;2.77;;
11642;SDS011;5877;50.930;6.918;2023-03-29T00:10:27;3.13;;;2.40;;
11642;SDS011;5877;50.930;6.918;2023-03-29T00:15:19;4.53;;;2.53;;
11642;SDS011;5877;50.930;6.918;2023-03-29T00:20:11;3.23;;;2.47;;
11642;SDS011;5877;50.930;6.918;2023-03-29T00:25:04;4.10;;;2.40;;
11642;SDS011;5877;50.930;6.918;2023-03-29T00:29:57;4.17;;;2.37;;
11642;SDS011;5877;50.930;6.918;2023-03-29T00:34:49;5.07;;;2.53;;
11642;SDS011;5877;50.930;6.918;2023-03-29T00:39:41;3.13;;;2.40;;
11642;SDS011;5877;50.930;6.918;2023-03-29T00:45:19;3.50;;;2.60;;
11642;SDS011;5877;50.930;6.918;2023-03-29T00:49:55;3.40;;;2.17;;
11642;SDS011;5877;50.930;6.918;2023-03-29T00:54:53;4.67;;;2.23;;
11642;SDS011;5877;50.930;6.918;2023-03-29T00:59:46;3.90;;;2.33;;
11642;SDS011;5877;50.930;6.918;2023-03-29T01:04:45;3.70;;;2.60;;
11642;SDS011;5877;50.930;6.918;2023-03-29T01:10:00;3.77;;;2.60;;
11642;SDS011;5877;50.930;6.918;2023-03-29T01:15:13;4.50;;;2.47;;
11642;SDS011;5877;50.930;6.918;2023-03-29T01:20:12;4.83;;;2.40;;
11642;SDS011;5877;50.930;6.918;2023-03-29T01:30:45;3.30;;;2.43;;
11642;SDS011;5877;50.930;6.918;2023-03-29T01:41:09;2.90;;;2.10;;
11642;SDS011;5877;50.930;6.918;2023-03-29T01:46:13;3.67;;;2.37;;
11642;SDS011;5877;50.930;6.918;2023-03-29T01:51:14;3.67;;;2.23;;
11642;SDS011;5877;50.930;6.918;2023-03-29T01:56:13;3.40;;;2.37;;
11642;SDS011;5877;50.930;6.918;2023-03-29T02:01:12;4.53;;;2.33;;
11642;SDS011;5877;50.930;6.918;2023-03-29T02:06:10;4.70;;;2.43;;
11642;SDS011;5877;50.930;6.918;2023-03-29T02:11:06;2.77;;;2.00;;
11642;SDS011;5877;50.930;6.918;2023-03-29T02:15:58;5.30;;;2.70;;
11642;SDS011;5877;50.930;6.918;2023-03-29T02:20:56;3.53;;;2.20;;
11642;SDS011;5877;50.930;6.918;2023-03-29T02:25:49;4.77;;;2.27;;
11642;SDS011;5877;50.930;6.918;2023-03-29T02:31:02;4.00;;;2.40;;
11642;SDS011;5877;50.930;6.918;2023-03-29T02:36:18;3.30;;;2.40;;
11642;SDS011;5877;50.930;6.918;2023-03-29T02:41:15;4.30;;;2.40;;
11642;SDS011;5877;50.930;6.918;2023-03-29T02:46:08;4.33;;;2.40;;
11642;SDS011;5877;50.930;6.918;2023-03-29T02:51:02;3.97;;;2.40;;
11642;SDS011;5877;50.930;6.918;2023-03-29T02:56:00;7.97;;;2.30;;
11642;SDS011;5877;50.930;6.918;2023-03-29T03:00:54;3.67;;;2.27;;
11642;SDS011;5877;50.930;6.918;2023-03-29T03:05:49;3.30;;;2.00;;
11642;SDS011;5877;50.930;6.918;2023-03-29T03:10:43;3.83;;;2.90;;
11642;SDS011;5877;50.930;6.918;2023-03-29T03:15:36;3.27;;;2.53;;
11642;SDS011;5877;50.930;6.918;2023-03-29T03:20:32;2.97;;;2.47;;
11642;SDS011;5877;50.930;6.918;2023-03-29T03:25:25;3.93;;;2.60;;
11642;SDS011;5877;50.930;6.918;2023-03-29T03:30:18;4.10;;;2.30;;
11642;SDS011;5877;50.930;6.918;2023-03-29T03:35:30;4.07;;;2.30;;
11642;SDS011;5877;50.930;6.918;2023-03-29T03:40:22;4.57;;;2.20;;
11642;SDS011;5877;50.930;6.918;2023-03-29T03:45:16;2.77;;;2.30;;
11642;SDS011;5877;50.930;6.918;2023-03-29T03:50:15;3.40;;;2.30;;
11642;SDS011;5877;50.930;6.918;2023-03-29T03:55:08;4.23;;;2.53;;
11642;SDS011;5877;50.930;6.918;2023-03-29T04:00:14;3.23;;;2.10;;
11642;SDS011;5877;50.930;6.918;2023-03-29T04:05:28;4.57;;;2.50;;
11642;SDS011;5877;50.930;6.918;2023-03-29T04:10:21;3.03;;;2.30;;
11642;SDS011;5877;50.930;6.918;2023-03-29T04:15:24;5.50;;;2.30;;
11642;SDS011;5877;50.930;6.918;2023-03-29T04:20:26;3.50;;;2.20;;
11642;SDS011;5877;50.930;6.918;2023-03-29T04:25:19;3.00;;;2.30;;
11642;SDS011;5877;50.930;6.918;2023-03-29T04:30:37;4.57;;;2.37;;
11642;SDS011;5877;50.930;6.918;2023-03-29T04:35:29;6.37;;;3.40;;
11642;SDS011;5877;50.930;6.918;2023-03-29T04:40:22;5.60;;;2.67;;
11642;SDS011;5877;50.930;6.918;2023-03-29T04:45:31;4.70;;;2.70;;
11642;SDS011;5877;50.930;6.918;2023-03-29T04:50:35;5.93;;;2.67;;
11642;SDS011;5877;50.930;6.918;2023-03-29T04:55:27;4.90;;;2.67;;
11642;SDS011;5877;50.930;6.918;2023-03-29T05:00:24;3.13;;;2.50;;
11642;SDS011;5877;50.930;6.918;2023-03-29T05:05:18;4.40;;;2.63;;
11642;SDS011;5877;50.930;6.918;2023-03-29T05:10:12;3.10;;;2.80;;
11642;SDS011;5877;50.930;6.918;2023-03-29T05:15:06;3.00;;;2.30;;
11642;SDS011;5877;50.930;6.918;2023-03-29T05:19:59;5.53;;;2.87;;
11642;SDS011;5877;50.930;6.918;2023-03-29T05:24:52;5.53;;;2.80;;
11642;SDS011;5877;50.930;6.918;2023-03-29T05:29:45;5.90;;;2.80;;
11642;SDS011;5877;50.930;6.918;2023-03-29T05:35:04;4.40;;;2.60;;
11642;SDS011;5877;50.930;6.918;2023-03-29T05:39:58;4.13;;;2.73;;
11642;SDS011;5877;50.930;6.918;2023-03-29T05:45:04;2.90;;;2.30;;
11642;SDS011;5877;50.930;6.918;2023-03-29T05:49:56;4.77;;;2.70;;
11642;SDS011;5877;50.930;6.918;2023-03-29T05:54:48;3.97;;;2.63;;
11642;SDS011;5877;50.930;6.918;2023-03-29T05:59:42;5.83;;;2.53;;
11642;SDS011;5877;50.930;6.918;2023-03-29T06:04:34;4.80;;;2.70;;
11642;SDS011;5877;50.930;6.918;2023-03-29T06:09:47;3.30;;;2.43;;
11642;SDS011;5877;50.930;6.918;2023-03-29T06:14:40;5.53;;;2.87;;
11642;SDS011;5877;50.930;6.918;2023-03-29T06:19:52;6.43;;;2.93;;
11642;SDS011;5877;50.930;6.918;2023-03-29T06:24:48;3.70;;;2.53;;
11642;SDS011;5877;50.930;6.918;2023-03-29T06:29:46;5.20;;;2.63;;
11642;SDS011;5877;50.930;6.918;2023-03-29T06:34:38;4.53;;;2.80;;
11642;SDS011;5877;50.930;6.918;2023-03-29T06:39:44;5.40;;;2.50;;
11642;SDS011;5877;50.930;6.918;2023-03-29T06:44:48;4.83;;;3.00;;
11642;SDS011;5877;50.930;6.918;2023-03-29T06:49:42;5.83;;;2.80;;
11642;SDS011;5877;50.930;6.918;2023-03-29T06:54:50;6.07;;;2.70;;
11642;SDS011;5877;50.930;6.918;2023-03-29T06:59:43;5.27;;;3.37;;
11642;SDS011;5877;50.930;6.918;2023-03-29T07:04:57;9.83;;;3.07;;
11642;SDS011;5877;50.930;6.918;2023-03-29T07:09:56;3.63;;;2.50;;
11642;SDS011;5877;50.930;6.918;2023-03-29T07:15:14;6.70;;;2.57;;
11642;SDS011;5877;50.930;6.918;2023-03-29T07:20:31;3.40;;;2.60;;
11642;SDS011;5877;50.930;6.918;2023-03-29T07:25:29;6.37;;;2.50;;
11642;SDS011;5877;50.930;6.918;2023-03-29T07:30:23;4.77;;;2.73;;
11642;SDS011;5877;50.930;6.918;2023-03-29T07:35:34;6.10;;;3.23;;
11642;SDS011;5877;50.930;6.918;2023-03-29T07:40:27;6.57;;;2.63;;
11642;SDS011;5877;50.930;6.918;2023-03-29T07:45:41;3.17;;;2.73;;
11642;SDS011;5877;50.930;6.918;2023-03-29T07:50:37;3.17;;;2.50;;
11642;SDS011;5877;50.930;6.918;2023-03-29T07:55:29;4.90;;;2.57;;
11642;SDS011;5877;50.930;6.918;2023-03-29T08:00:33;3.77;;;2.60;;
11642;SDS011;5877;50.930;6.918;2023-03-29T08:05:45;7.00;;;2.90;;
11642;SDS011;5877;50.930;6.918;2023-03-29T08:10:39;6.27;;;2.80;;
11642;SDS011;5877;50.930;6.918;2023-03-29T08:15:44;3.40;;;2.70;;
11642;SDS011;5877;50.930;6.918;2023-03-29T08:20:53;5.17;;;3.10;;
11642;SDS011;5877;50.930;6.918;2023-03-29T08:25:46;5.73;;;3.10;;
11642;SDS011;5877;50.930;6.918;2023-03-29T08:30:39;6.40;;;3.23;;
11642;SDS011;5877;50.930;6.918;2023-03-29T08:35:31;5.03;;;2.90;;
11642;SDS011;5877;50.930;6.918;2023-03-29T08:40:48;6.20;;;3.60;;
11642;SDS011;5877;50.930;6.918;2023-03-29T08:51:16;6.33;;;3.30;;
11642;SDS011;5877;50.930;6.918;2023-03-29T08:56:17;6.20;;;3.00;;
11642;SDS011;5877;50.930;6.918;2023-03-29T09:01:30;8.53;;;3.30;;
11642;SDS011;5877;50.930;6.918;2023-03-29T09:06:27;5.73;;;3.20;;
11642;SDS011;5877;50.930;6.918;2023-03-29T09:11:39;7.93;;;3.40;;
11642;SDS011;5877;50.930;6.918;2023-03-29T09:16:44;5.07;;;3.00;;
11642;SDS011;5877;50.930;6.918;2023-03-29T09:27:17;4.87;;;3.50;;
11642;SDS011;5877;50.930;6.918;2023-03-29T09:33:08;5.50;;;3.20;;
11642;SDS011;5877;50.930;6.918;2023-03-29T09:37:45;7.47;;;3.30;;
11642;SDS011;5877;50.930;6.918;2023-03-29T09:42:39;8.03;;;3.47;;
11642;SDS011;5877;50.930;6.918;2023-03-29T09:52:54;8.57;;;3.30;;
11642;SDS011;5877;50.930;6.918;2023-03-29T09:57:47;6.40;;;3.07;;
11642;SDS011;5877;50.930;6.918;2023-03-29T10:02:48;4.80;;;3.27;;
11642;SDS011;5877;50.930;6.918;2023-03-29T10:07:44;4.53;;;3.33;;
11642;SDS011;5877;50.930;6.918;2023-03-29T10:12:39;7.43;;;3.40;;
11642;SDS011;5877;50.930;6.918;2023-03-29T10:17:37;8.80;;;3.60;;
11642;SDS011;5877;50.930;6.918;2023-03-29T10:22:33;9.27;;;3.40;;
11642;SDS011;5877;50.930;6.918;2023-03-29T10:27:31;6.70;;;3.53;;
11642;SDS011;5877;50.930;6.918;2023-03-29T10:32:34;5.30;;;3.17;;
11642;SDS011;5877;50.930;6.918;2023-03-29T10:37:28;5.13;;;3.13;;
11642;SDS011;5877;50.930;6.918;2023-03-29T10:42:21;6.13;;;2.83;;
11642;SDS011;5877;50.930;6.918;2023-03-29T10:47:15;4.87;;;3.27;;
11642;SDS011;5877;50.930;6.918;2023-03-29T10:52:13;6.47;;;3.40;;
11642;SDS011;5877;50.930;6.918;2023-03-29T10:57:07;6.17;;;3.50;;
11642;SDS011;5877;50.930;6.918;2023-03-29T11:22:30;5.73;;;3.30;;
11642;SDS011;5877;50.930;6.918;2023-03-29T11:27:44;4.23;;;2.80;;
11642;SDS011;5877;50.930;6.918;2023-03-29T11:33:03;9.67;;;2.87;;
11642;SDS011;5877;50.930;6.918;2023-03-29T11:43:18;4.03;;;2.63;;
11642;SDS011;5877;50.930;6.918;2023-03-29T11:48:21;6.57;;;2.80;;
11642;SDS011;5877;50.930;6.918;2023-03-29T11:58:46;6.10;;;2.60;;
11642;SDS011;5877;50.930;6.918;2023-03-29T12:03:44;4.37;;;2.23;;
11642;SDS011;5877;50.930;6.918;2023-03-29T12:08:48;4.00;;;3.03;;
11642;SDS011;5877;50.930;6.918;2023-03-29T12:14:09;5.00;;;3.00;;
11642;SDS011;5877;50.930;6.918;2023-03-29T12:19:29;7.00;;;4.40;;
11642;SDS011;5877;50.930;6.918;2023-03-29T12:24:22;3.67;;;2.60;;
11642;SDS011;5877;50.930;6.918;2023-03-29T12:40:35;3.40;;;1.90;;
11642;SDS011;5877;50.930;6.918;2023-03-29T12:45:55;4.60;;;2.50;;
11642;SDS011;5877;50.930;6.918;2023-03-29T12:51:02;3.27;;;2.27;;
11642;SDS011;5877;50.930;6.918;2023-03-29T13:01:37;3.13;;;2.23;;
11642;SDS011;5877;50.930;6.918;2023-03-29T13:06:25;2.70;;;1.77;;
11642;SDS011;5877;50.930;6.918;2023-03-29T13:11:24;2.40;;;1.50;;
11642;SDS011;5877;50.930;6.918;2023-03-29T13:16:19;2.40;;;1.30;;
11642;SDS011;5877;50.930;6.918;2023-03-29T13:21:26;3.03;;;1.47;;
11642;SDS011;5877;50.930;6.918;2023-03-29T13:36:57;1.53;;;1.40;;
11642;SDS011;5877;50.930;6.918;2023-03-29T13:42:16;1.73;;;1.40;;
11642;SDS011;5877;50.930;6.918;2023-03-29T13:57:31;2.43;;;1.30;;
11642;SDS011;5877;50.930;6.918;2023-03-29T14:02:30;2.73;;;1.50;;
11642;SDS011;5877;50.930;6.918;2023-03-29T14:07:29;4.13;;;1.50;;
11642;SDS011;5877;50.930;6.918;2023-03-29T14:12:24;3.83;;;1.57;;
11642;SDS011;5877;50.930;6.918;2023-03-29T14:17:23;3.00;;;1.40;;
11642;SDS011;5877;50.930;6.918;2023-03-29T14:22:20;2.23;;;1.30;;
11642;SDS011;5877;50.930;6.918;2023-03-29T14:27:12;2.47;;;1.63;;
11642;SDS011;5877;50.930;6.918;2023-03-29T14:32:38;1.80;;;1.30;;
11642;SDS011;5877;50.930;6.918;2023-03-29T14:37:26;1.80;;;1.20;;
11642;SDS011;5877;50.930;6.918;2023-03-29T14:42:20;2.80;;;1.50;;
11642;SDS011;5877;50.930;6.918;2023-03-29T14:47:19;2.80;;;1.70;;
11642;SDS011;5877;50.930;6.918;2023-03-29T14:52:17;3.30;;;1.30;;
11642;SDS011;5877;50.930;6.918;2023-03-29T14:57:16;2.57;;;1.43;;
11642;SDS011;5877;50.930;6.918;2023-03-29T15:07:41;3.73;;;1.60;;
11642;SDS011;5877;50.930;6.918;2023-03-29T15:12:33;3.57;;;1.53;;
11642;SDS011;5877;50.930;6.918;2023-03-29T15:17:30;3.97;;;1.70;;
11642;SDS011;5877;50.930;6.918;2023-03-29T15:22:58;3.53;;;1.87;;
11642;SDS011;5877;50.930;6.918;2023-03-29T15:27:54;3.37;;;1.70;;
11642;SDS011;5877;50.930;6.918;2023-03-29T15:32:51;5.07;;;1.40;;
11642;SDS011;5877;50.930;6.918;2023-03-29T15:37:43;3.30;;;1.90;;
11642;SDS011;5877;50.930;6.918;2023-03-29T15:42:36;5.57;;;2.43;;
11642;SDS011;5877;50.930;6.918;2023-03-29T15:47:28;5.10;;;1.70;;
11642;SDS011;5877;50.930;6.918;2023-03-29T15:52:20;2.33;;;1.63;;
11642;SDS011;5877;50.930;6.918;2023-03-29T15:57:13;4.27;;;1.50;;
11642;SDS011;5877;50.930;6.918;2023-03-29T16:02:09;2.00;;;1.70;;
11642;SDS011;5877;50.930;6.918;2023-03-29T16:07:06;3.87;;;1.57;;
11642;SDS011;5877;50.930;6.918;2023-03-29T16:12:03;5.23;;;2.10;;
11642;SDS011;5877;50.930;6.918;2023-03-29T16:16:56;3.17;;;2.03;;
11642;SDS011;5877;50.930;6.918;2023-03-29T16:21:49;3.60;;;1.70;;
11642;SDS011;5877;50.930;6.918;2023-03-29T16:26:42;2.80;;;1.63;;
11642;SDS011;5877;50.930;6.918;2023-03-29T16:31:33;2.73;;;1.83;;
11642;SDS011;5877;50.930;6.918;2023-03-29T16:36:26;5.43;;;2.03;;
11642;SDS011;5877;50.930;6.918;2023-03-29T16:41:20;3.33;;;1.90;;
11642;SDS011;5877;50.930;6.918;2023-03-29T16:46:12;2.07;;;1.63;;
11642;SDS011;5877;50.930;6.918;2023-03-29T16:51:08;2.73;;;2.07;;
11642;SDS011;5877;50.930;6.918;2023-03-29T16:56:00;3.30;;;2.20;;
11642;SDS011;5877;50.930;6.918;2023-03-29T17:00:53;3.13;;;2.00;;
11642;SDS011;5877;50.930;6.918;2023-03-29T17:05:46;2.30;;;1.63;;
11642;SDS011;5877;50.930;6.918;2023-03-29T17:10:39;3.53;;;2.13;;
11642;SDS011;5877;50.930;6.918;2023-03-29T17:15:31;3.30;;;2.30;;
11642;SDS011;5877;50.930;6.918;2023-03-29T17:20:23;3.93;;;1.70;;
11642;SDS011;5877;50.930;6.918;2023-03-29T17:25:15;3.63;;;1.83;;
11642;SDS011;5877;50.930;6.918;2023-03-29T17:30:07;2.20;;;1.73;;
11642;SDS011;5877;50.930;6.918;2023-03-29T17:34:59;6.63;;;1.73;;
11642;SDS011;5877;50.930;6.918;2023-03-29T17:39:51;4.50;;;1.50;;
11642;SDS011;5877;50.930;6.918;2023-03-29T17:44:43;2.27;;;1.70;;
11642;SDS011;5877;50.930;6.918;2023-03-29T17:49:35;4.60;;;1.60;;
11642;SDS011;5877;50.930;6.918;2023-03-29T17:54:27;2.17;;;1.60;;
11642;SDS011;5877;50.930;6.918;2023-03-29T17:59:19;2.90;;;1.40;;
11642;SDS011;5877;50.930;6.918;2023-03-29T18:04:10;3.80;;;1.50;;
11642;SDS011;5877;50.930;6.918;2023-03-29T18:09:03;3.77;;;1.40;;
11642;SDS011;5877;50.930;6.918;2023-03-29T18:13:58;3.27;;;1.87;;
11642;SDS011;5877;50.930;6.918;2023-03-29T18:18:51;4.53;;;1.60;;
11642;SDS011;5877;50.930;6.918;2023-03-29T18:23:44;4.00;;;1.80;;
11642;SDS011;5877;50.930;6.918;2023-03-29T18:28:37;3.70;;;2.20;;
11642;SDS011;5877;50.930;6.918;2023-03-29T18:33:29;2.33;;;1.80;;
11642;SDS011;5877;50.930;6.918;2023-03-29T18:38:25;4.83;;;2.10;;
11642;SDS011;5877;50.930;6.918;2023-03-29T18:43:18;3.90;;;1.87;;
11642;SDS011;5877;50.930;6.918;2023-03-29T18:48:10;3.20;;;1.70;;
11642;SDS011;5877;50.930;6.918;2023-03-29T18:53:03;4.53;;;1.83;;
11642;SDS011;5877;50.930;6.918;2023-03-29T18:57:56;3.93;;;1.93;;
11642;SDS011;5877;50.930;6.918;2023-03-29T19:02:50;4.37;;;1.80;;
11642;SDS011;5877;50.930;6.918;2023-03-29T19:07:44;6.63;;;2.50;;
11642;SDS011;5877;50.930;6.918;2023-03-29T19:12:38;3.47;;;2.43;;
11642;SDS011;5877;50.930;6.918;2023-03-29T19:17:30;3.63;;;2.07;;
11642;SDS011;5877;50.930;6.918;2023-03-29T19:22:24;3.87;;;2.23;;
11642;SDS011;5877;50.930;6.918;2023-03-29T19:27:31;3.27;;;2.37;;
11642;SDS011;5877;50.930;6.918;2023-03-29T19:32:30;4.40;;;2.00;;
11642;SDS011;5877;50.930;6.918;2023-03-29T19:37:26;4.53;;;2.00;;
11642;SDS011;5877;50.930;6.918;2023-03-29T19:42:19;3.87;;;2.40;;
11642;SDS011;5877;50.930;6.918;2023-03-29T19:47:11;4.87;;;2.37;;
11642;SDS011;5877;50.930;6.918;2023-03-29T19:52:04;3.13;;;2.63;;
11642;SDS011;5877;50.930;6.918;2023-03-29T19:56:56;3.60;;;2.50;;
11642;SDS011;5877;50.930;6.918;2023-03-29T20:01:50;6.77;;;2.30;;
11642;SDS011;5877;50.930;6.918;2023-03-29T20:06:42;4.83;;;2.57;;
11642;SDS011;5877;50.930;6.918;2023-03-29T20:11:37;5.20;;;2.73;;
11642;SDS011;5877;50.930;6.918;2023-03-29T20:16:42;5.27;;;3.13;;
11642;SDS011;5877;50.930;6.918;2023-03-29T20:21:37;2.87;;;2.20;;
11642;SDS011;5877;50.930;6.918;2023-03-29T20:26:30;3.00;;;2.40;;
11642;SDS011;5877;50.930;6.918;2023-03-29T20:31:23;4.07;;;2.23;;
11642;SDS011;5877;50.930;6.918;2023-03-29T20:36:16;3.50;;;2.57;;
11642;SDS011;5877;50.930;6.918;2023-03-29T20:41:09;8.20;;;2.80;;
11642;SDS011;5877;50.930;6.918;2023-03-29T20:46:15;4.83;;;2.53;;
11642;SDS011;5877;50.930;6.918;2023-03-29T20:51:14;4.17;;;2.30;;
11642;SDS011;5877;50.930;6.918;2023-03-29T20:56:09;6.90;;;2.43;;
11642;SDS011;5877;50.930;6.918;2023-03-29T21:01:01;5.17;;;3.70;;
11642;SDS011;5877;50.930;6.918;2023-03-29T21:05:53;5.33;;;2.50;;
11642;SDS011;5877;50.930;6.918;2023-03-29T21:10:47;6.93;;;2.93;;
11642;SDS011;5877;50.930;6.918;2023-03-29T21:15:44;5.33;;;2.70;;
11642;SDS011;5877;50.930;6.918;2023-03-29T21:20:50;3.93;;;2.33;;
11642;SDS011;5877;50.930;6.918;2023-03-29T21:25:43;5.77;;;2.73;;
11642;SDS011;5877;50.930;6.918;2023-03-29T21:30:35;6.27;;;2.70;;
11642;SDS011;5877;50.930;6.918;2023-03-29T21:35:27;5.47;;;2.90;;
11642;SDS011;5877;50.930;6.918;2023-03-29T21:40:19;3.50;;;2.57;;
11642;SDS011;5877;50.930;6.918;2023-03-29T21:45:11;3.37;;;2.20;;
11642;SDS011;5877;50.930;6.918;2023-03-29T21:50:02;6.10;;;2.77;;
11642;SDS011;5877;50.930;6.918;2023-03-29T21:54:54;5.47;;;2.80;;
11642;SDS011;5877;50.930;6.918;2023-03-29T21:59:46;6.07;;;2.87;;
11642;SDS011;5877;50.930;6.918;2023-03-29T22:04:38;3.53;;;2.10;;
11642;SDS011;5877;50.930;6.918;2023-03-29T22:09:30;5.07;;;2.33;;
11642;SDS011;5877;50.930;6.918;2023-03-29T22:14:25;3.37;;;2.50;;
11642;SDS011;5877;50.930;6.918;2023-03-29T22:19:20;4.27;;;3.30;;
11642;SDS011;5877;50.930;6.918;2023-03-29T22:24:12;4.10;;;2.33;;
11642;SDS011;5877;50.930;6.918;2023-03-29T22:29:03;3.40;;;2.13;;
11642;SDS011;5877;50.930;6.918;2023-03-29T22:33:56;4.60;;;2.30;;
11642;SDS011;5877;50.930;6.918;2023-03-29T22:38:49;5.73;;;2.27;;
11642;SDS011;5877;50.930;6.918;2023-03-29T22:43:42;4.57;;;2.33;;
11642;SDS011;5877;50.930;6.918;2023-03-29T22:48:34;3.53;;;2.00;;
11642;SDS011;5877;50.930;6.918;2023-03-29T22:53:26;4.53;;;2.63;;
11642;SDS011;5877;50.930;6.918;2023-03-29T22:58:18;3.53;;;1.90;;
11642;SDS011;5877;50.930;6.918;2023-03-29T23:03:10;4.90;;;2.60;;
11642;SDS011;5877;50.930;6.918;2023-03-29T23:08:02;4.77;;;2.83;;
11642;SDS011;5877;50.930;6.918;2023-03-29T23:12:57;4.57;;;2.40;;
11642;SDS011;5877;50.930;6.918;2023-03-29T23:17:59;4.70;;;2.70;;
11642;SDS011;5877;50.930;6.918;2023-03-29T23:22:52;5.80;;;2.23;;
11642;SDS011;5877;50.930;6.918;2023-03-29T23:27:44;4.43;;;2.90;;
11642;SDS011;5877;50.930;6.918;2023-03-29T23:32:35;5.77;;;2.63;;
11642;SDS011;5877;50.930;6.918;2023-03-29T23:37:27;7.60;;;3.20;;
11642;SDS011;5877;50.930;6.918;2023-03-29T23:42:19;4.87;;;2.50;;
11642;SDS011;5877;50.930;6.918;2023-03-29T23:47:11;5.33;;;2.97;;
11642;SDS011;5877;50.930;6.918;2023-03-29T23:52:04;5.47;;;2.50;;
11642;SDS011;5877;50.930;6.918;2023-03-29T23:56:56;4.10;;;2.27;;
